createdAt,value
2019-04-25T00:00:27.182Z,100.00
2019-04-25T00:02:53.520Z,100.00
2019-04-25T00:05:21.173Z,100.00
2019-04-25T00:07:47.106Z,100.00
2019-04-25T00:10:13.754Z,100.00
2019-04-25T00:12:39.429Z,100.00
2019-04-25T00:15:05.131Z,100.00
2019-04-25T00:17:31.605Z,100.00
2019-04-25T00:19:57.777Z,100.00
2019-04-25T00:22:24.076Z,100.00
2019-04-25T00:24:51.605Z,100.00
2019-04-25T00:27:16.705Z,100.00
2019-04-25T00:29:43.912Z,100.00
2019-04-25T00:32:09.360Z,100.00
2019-04-25T00:34:35.656Z,100.00
2019-04-25T00:37:02.489Z,100.00
2019-04-25T00:39:28.310Z,100.00
2019-04-25T00:41:54.645Z,100.00
2019-04-25T00:44:21.954Z,100.00
2019-04-25T00:46:49.053Z,100.00
2019-04-25T00:49:13.630Z,100.00
2019-04-25T00:51:39.933Z,100.00
2019-04-25T00:54:06.258Z,100.00
2019-04-25T00:56:32.567Z,100.00
2019-04-25T00:58:58.877Z,100.00
2019-04-25T01:01:25.232Z,100.00
2019-04-25T01:03:53.312Z,100.00
2019-04-25T01:06:17.872Z,100.00
2019-04-25T01:08:44.247Z,100.00
2019-04-25T01:11:11.485Z,100.00
2019-04-25T01:13:36.846Z,100.00
2019-04-25T01:16:04.061Z,100.00
2019-04-25T01:18:29.484Z,100.00
2019-04-25T01:20:55.789Z,100.00
2019-04-25T01:23:23.658Z,100.00
2019-04-25T01:25:48.425Z,100.00
2019-04-25T01:28:14.758Z,100.00
2019-04-25T01:30:41.088Z,100.00
2019-04-25T01:33:07.396Z,100.00
2019-04-25T01:35:33.747Z,100.00
2019-04-25T01:38:00.052Z,100.00
2019-04-25T01:40:26.392Z,100.00
2019-04-25T01:42:53.914Z,100.00
2019-04-25T01:45:19.018Z,100.00
2019-04-25T01:47:45.539Z,100.00
2019-04-25T01:50:11.674Z,100.00
2019-04-25T01:52:38.000Z,100.00
2019-04-25T01:55:05.547Z,100.00
2019-04-25T01:57:30.639Z,100.00
2019-04-25T01:59:57.517Z,100.00
2019-04-25T02:02:23.599Z,100.00
2019-04-25T02:04:49.574Z,100.00
2019-04-25T02:07:15.913Z,100.00
2019-04-25T02:09:43.560Z,100.00
2019-04-25T02:12:08.559Z,100.00
2019-04-25T02:14:34.888Z,100.00
2019-04-25T02:17:01.212Z,100.00
2019-04-25T02:19:27.518Z,100.00
2019-04-25T02:21:54.539Z,100.00
2019-04-25T02:24:20.154Z,100.00
2019-04-25T02:26:46.469Z,100.00
2019-04-25T02:29:13.686Z,100.00
2019-04-25T02:31:39.110Z,100.00
2019-04-25T02:34:08.434Z,100.00
2019-04-25T02:36:34.431Z,100.00
2019-04-25T02:39:01.239Z,100.00
2019-04-25T02:41:25.040Z,100.00
2019-04-25T02:43:50.712Z,100.00
2019-04-25T02:46:17.039Z,100.00
2019-04-25T02:48:44.167Z,100.00
2019-04-25T02:51:09.672Z,100.00
2019-04-25T02:53:37.349Z,100.00
2019-04-25T02:56:04.978Z,100.00
2019-04-25T02:58:28.649Z,100.00
2019-04-25T03:01:03.349Z,100.00
2019-04-25T03:03:21.295Z,100.00
2019-04-25T03:05:47.995Z,100.00
2019-04-25T03:08:14.372Z,100.00
2019-04-25T03:10:40.270Z,100.00
2019-04-25T03:13:10.312Z,100.00
2019-04-25T03:15:34.177Z,100.00
2019-04-25T03:17:59.879Z,100.00
2019-04-25T03:20:25.544Z,100.00
2019-04-25T03:22:54.470Z,100.00
2019-04-25T03:25:18.154Z,100.00
2019-04-25T03:27:44.495Z,100.00
2019-04-25T03:30:13.628Z,100.00
2019-04-25T03:32:37.128Z,100.00
2019-04-25T03:35:04.950Z,100.00
2019-04-25T03:37:29.772Z,100.00
2019-04-25T03:39:56.101Z,100.00
2019-04-25T03:42:23.972Z,100.00
2019-04-25T03:44:48.715Z,100.00
2019-04-25T03:47:15.057Z,100.00
2019-04-25T03:49:41.363Z,100.00
2019-04-25T03:52:07.960Z,100.00
2019-04-25T03:54:34.031Z,100.00
2019-04-25T03:57:00.374Z,100.00
2019-04-25T03:59:26.692Z,100.00
2019-04-25T04:01:53.782Z,100.00
2019-04-25T04:04:19.554Z,100.00
2019-04-25T04:06:45.856Z,100.00
2019-04-25T04:09:13.925Z,100.00
2019-04-25T04:11:38.514Z,100.00
2019-04-25T04:14:05.806Z,100.00
2019-04-25T04:16:31.157Z,100.00
2019-04-25T04:18:57.483Z,100.00
2019-04-25T04:21:23.792Z,100.00
2019-04-25T04:23:50.096Z,100.00
2019-04-25T04:26:16.431Z,100.00
2019-04-25T04:28:43.516Z,100.00
2019-04-25T04:31:09.095Z,100.00
2019-04-25T04:33:35.397Z,100.00
2019-04-25T04:36:01.725Z,100.00
2019-04-25T04:38:28.032Z,100.00
2019-04-25T04:40:55.132Z,100.00
2019-04-25T04:43:20.689Z,100.00
2019-04-25T04:45:46.993Z,100.00
2019-04-25T04:48:14.622Z,100.00
2019-04-25T04:50:39.632Z,100.00
2019-04-25T04:53:05.975Z,100.00
2019-04-25T04:55:32.297Z,100.00
2019-04-25T04:58:01.302Z,100.00
2019-04-25T05:00:24.948Z,100.00
2019-04-25T05:02:51.264Z,100.00
2019-04-25T05:05:17.580Z,100.00
2019-04-25T05:07:44.006Z,100.00
2019-04-25T05:10:10.591Z,97.78
2019-04-25T05:12:36.544Z,98.23
2019-04-25T05:15:03.785Z,97.53
2019-04-25T05:17:29.170Z,96.82
2019-04-25T05:19:55.500Z,96.35
2019-04-25T05:22:23.914Z,96.39
2019-04-25T05:24:48.155Z,96.10
2019-04-25T05:27:16.690Z,95.78
2019-04-25T05:29:40.775Z,95.25
2019-04-25T05:32:07.087Z,94.18
2019-04-25T05:34:35.925Z,93.63
2019-04-25T05:37:03.731Z,92.56
2019-04-25T05:39:28.535Z,92.91
2019-04-25T05:41:54.860Z,91.60
2019-04-25T05:44:21.161Z,90.80
2019-04-25T05:46:47.493Z,90.07
2019-04-25T05:49:13.897Z,89.85
2019-04-25T05:51:46.138Z,89.66
2019-04-25T05:54:13.978Z,89.44
2019-04-25T05:56:38.791Z,89.21
2019-04-25T05:59:05.523Z,88.48
2019-04-25T06:01:31.427Z,88.35
2019-04-25T06:03:57.758Z,89.35
2019-04-25T06:06:24.756Z,89.28
2019-04-25T06:08:50.391Z,89.19
2019-04-25T06:11:17.948Z,89.12
2019-04-25T06:13:43.441Z,87.99
2019-04-25T06:16:09.438Z,86.55
2019-04-25T06:18:35.745Z,86.52
2019-04-25T06:21:03.084Z,87.62
2019-04-25T06:23:28.949Z,87.87
2019-04-25T06:25:54.752Z,87.45
2019-04-25T06:28:21.735Z,86.60
2019-04-25T06:30:47.371Z,85.95
2019-04-25T06:33:13.695Z,85.05
2019-04-25T06:35:40.001Z,84.29
2019-04-25T06:38:06.321Z,83.17
2019-04-25T06:40:34.430Z,82.80
2019-04-25T06:42:59.017Z,81.98
2019-04-25T06:45:26.634Z,81.31
2019-04-25T06:47:51.661Z,78.60
2019-04-25T06:50:17.993Z,78.43
2019-04-25T06:52:44.359Z,76.58
2019-04-25T06:55:10.684Z,75.96
2019-04-25T06:57:36.989Z,76.23
2019-04-25T07:00:04.431Z,76.90
2019-04-25T07:02:29.692Z,77.37
2019-04-25T07:04:55.997Z,77.72
2019-04-25T07:07:25.257Z,77.66
2019-04-25T07:09:48.724Z,77.38
2019-04-25T07:12:15.047Z,75.52
2019-04-25T07:14:41.612Z,74.74
2019-04-25T07:17:09.197Z,74.04
2019-04-25T07:19:35.741Z,72.79
2019-04-25T07:22:03.915Z,72.12
2019-04-25T07:24:29.610Z,71.69
2019-04-25T07:26:56.382Z,70.96
2019-04-25T07:29:24.795Z,69.34
2019-04-25T07:31:49.010Z,67.77
2019-04-25T07:34:15.313Z,67.29
2019-04-25T07:36:41.664Z,67.20
2019-04-25T07:39:10.518Z,67.90
2019-04-25T07:41:36.825Z,68.11
2019-04-25T07:44:00.676Z,68.17
2019-04-25T07:46:27.733Z,68.15
2019-04-25T07:48:53.594Z,67.38
2019-04-25T07:51:19.623Z,66.35
2019-04-25T07:53:45.954Z,65.74
2019-04-25T07:56:12.261Z,65.89
2019-04-25T07:58:49.159Z,66.02
2019-04-25T08:01:04.903Z,65.88
2019-04-25T08:03:32.099Z,64.87
2019-04-25T08:05:57.570Z,64.99
2019-04-25T08:08:23.943Z,64.94
2019-04-25T08:10:50.249Z,64.44
2019-04-25T08:13:16.576Z,63.68
2019-04-25T08:15:43.700Z,63.50
2019-04-25T08:18:09.189Z,63.45
2019-04-25T08:20:35.927Z,63.47
2019-04-25T08:23:01.831Z,63.02
2019-04-25T08:25:28.479Z,63.21
2019-04-25T08:27:55.241Z,62.51
2019-04-25T08:30:20.854Z,62.57
2019-04-25T08:32:47.165Z,62.56
2019-04-25T08:35:14.000Z,60.59
2019-04-25T08:37:39.817Z,60.02
2019-04-25T08:40:06.121Z,58.56
2019-04-25T08:42:34.556Z,58.76
2019-04-25T08:44:58.760Z,58.72
2019-04-25T08:47:25.070Z,59.23
2019-04-25T08:49:51.467Z,58.86
2019-04-25T08:52:17.778Z,58.94
2019-04-25T08:54:47.241Z,58.69
2019-04-25T08:57:10.451Z,58.25
2019-04-25T08:59:42.376Z,58.34
2019-04-25T09:02:03.501Z,58.42
2019-04-25T09:04:29.431Z,58.41
2019-04-25T09:06:55.759Z,57.19
2019-04-25T09:09:23.555Z,56.50
2019-04-25T09:11:48.464Z,56.30
2019-04-25T09:14:14.796Z,56.50
2019-04-25T09:16:42.351Z,56.62
2019-04-25T09:19:07.439Z,56.17
2019-04-25T09:21:35.281Z,54.66
2019-04-25T09:24:00.067Z,54.57
2019-04-25T09:26:26.438Z,55.21
2019-04-25T09:28:53.643Z,55.38
2019-04-25T09:31:19.094Z,55.29
2019-04-25T09:33:46.647Z,55.50
2019-04-25T09:36:11.766Z,55.60
2019-04-25T09:38:38.841Z,55.10
2019-04-25T09:41:04.401Z,54.81
2019-04-25T09:43:30.703Z,55.05
2019-04-25T09:45:57.031Z,54.61
2019-04-25T09:48:23.358Z,55.08
2019-04-25T09:50:49.701Z,54.37
2019-04-25T09:53:23.196Z,53.03
2019-04-25T09:55:44.071Z,53.15
2019-04-25T09:58:08.661Z,52.10
2019-04-25T10:00:36.393Z,51.60
2019-04-25T10:03:01.295Z,51.93
2019-04-25T10:05:27.620Z,52.74
2019-04-25T10:07:53.958Z,52.84
2019-04-25T10:10:20.290Z,53.75
2019-04-25T10:12:47.442Z,52.40
2019-04-25T10:15:14.230Z,51.31
2019-04-25T10:17:39.329Z,49.74
2019-04-25T10:20:05.579Z,50.54
2019-04-25T10:22:31.927Z,51.48
2019-04-25T10:25:00.714Z,50.97
2019-04-25T10:27:24.561Z,51.37
2019-04-25T10:29:53.804Z,50.34
2019-04-25T10:32:17.186Z,50.63
2019-04-25T10:34:45.166Z,50.63
2019-04-25T10:37:09.842Z,49.66
2019-04-25T10:39:36.168Z,50.32
2019-04-25T10:42:03.584Z,49.98
2019-04-25T10:44:28.815Z,50.52
2019-04-25T10:46:55.115Z,50.91
2019-04-25T10:49:23.411Z,50.12
2019-04-25T10:51:47.994Z,50.24
2019-04-25T10:54:14.561Z,49.92
2019-04-25T10:56:41.523Z,50.26
2019-04-25T10:59:06.747Z,50.95
2019-04-25T11:01:33.910Z,50.32
2019-04-25T11:03:59.374Z,48.49
2019-04-25T11:06:25.704Z,48.21
2019-04-25T11:08:55.040Z,46.96
2019-04-25T11:11:18.341Z,45.90
2019-04-25T11:13:45.277Z,46.17
2019-04-25T11:16:11.020Z,46.22
2019-04-25T11:18:37.341Z,47.99
2019-04-25T11:21:05.760Z,48.11
2019-04-25T11:23:29.960Z,49.37
2019-04-25T11:25:56.444Z,48.96
2019-04-25T11:28:23.436Z,46.90
2019-04-25T11:30:49.079Z,46.52
2019-04-25T11:33:15.411Z,47.94
2019-04-25T11:35:41.718Z,47.63
2019-04-25T11:38:08.198Z,47.87
2019-04-25T11:40:34.654Z,47.43
2019-04-25T11:43:00.678Z,47.67
2019-04-25T11:45:26.985Z,47.94
2019-04-25T11:47:54.431Z,47.84
2019-04-25T11:50:19.620Z,48.40
2019-04-25T11:52:46.776Z,48.28
2019-04-25T11:55:12.329Z,47.58
2019-04-25T11:57:38.616Z,47.38
2019-04-25T12:00:04.965Z,47.31
2019-04-25T12:02:31.321Z,46.23
2019-04-25T12:04:57.661Z,45.34
2019-04-25T12:07:23.971Z,45.10
2019-04-25T12:09:50.299Z,43.84
2019-04-25T12:12:16.631Z,43.87
2019-04-25T12:14:44.188Z,44.69
2019-04-25T12:17:09.262Z,44.53
2019-04-25T12:19:37.921Z,45.60
2019-04-25T12:22:01.919Z,44.97
2019-04-25T12:24:28.229Z,44.82
2019-04-25T12:26:55.821Z,45.51
2019-04-25T12:29:20.856Z,45.46
2019-04-25T12:31:47.647Z,44.99
2019-04-25T12:34:14.147Z,44.81
2019-04-25T12:36:39.808Z,44.95
2019-04-25T12:39:07.174Z,45.38
2019-04-25T12:41:32.498Z,45.71
2019-04-25T12:43:58.805Z,45.66
2019-04-25T12:46:25.125Z,46.59
2019-04-25T12:48:51.686Z,46.41
2019-04-25T12:51:17.743Z,46.27
2019-04-25T12:53:44.098Z,45.19
2019-04-25T12:56:10.401Z,45.17
2019-04-25T12:58:36.730Z,45.71
2019-04-25T13:01:04.301Z,45.20
2019-04-25T13:03:29.360Z,45.56
2019-04-25T13:05:56.354Z,44.75
2019-04-25T13:08:22.036Z,44.79
2019-04-25T13:10:48.368Z,44.74
2019-04-25T13:13:15.400Z,45.17
2019-04-25T13:15:43.787Z,45.05
2019-04-25T13:18:07.334Z,45.33
2019-04-25T13:20:33.641Z,45.25
2019-04-25T13:23:00.575Z,45.81
2019-04-25T13:25:26.278Z,46.32
2019-04-25T13:27:52.610Z,46.13
2019-04-25T13:30:18.951Z,46.59
2019-04-25T13:32:45.251Z,46.24
2019-04-25T13:35:11.579Z,46.37
2019-04-25T13:37:37.951Z,46.50
2019-04-25T13:40:04.286Z,47.02
2019-04-25T13:42:30.585Z,47.84
2019-04-25T13:44:56.914Z,48.30
2019-04-25T13:47:27.565Z,45.70
2019-04-25T13:49:49.530Z,46.51
2019-04-25T13:52:17.720Z,46.50
2019-04-25T13:54:43.590Z,47.14
2019-04-25T13:57:08.493Z,47.95
2019-04-25T13:59:34.821Z,50.77
2019-04-25T14:02:01.137Z,49.15
2019-04-25T14:04:28.063Z,47.32
2019-04-25T14:06:53.806Z,46.26
2019-04-25T14:09:21.414Z,45.53
2019-04-25T14:11:46.443Z,45.33
2019-04-25T14:14:12.752Z,45.76
2019-04-25T14:16:39.083Z,44.95
2019-04-25T14:19:05.404Z,45.73
2019-04-25T14:21:33.421Z,46.93
2019-04-25T14:23:58.048Z,46.38
2019-04-25T14:26:25.022Z,47.28
2019-04-25T14:28:50.775Z,47.62
2019-04-25T14:31:30.558Z,46.07
2019-04-25T14:33:43.463Z,45.56
2019-04-25T14:36:09.765Z,45.29
2019-04-25T14:38:36.889Z,45.59
2019-04-25T14:41:02.407Z,46.21
2019-04-25T14:43:28.830Z,46.03
2019-04-25T14:45:56.257Z,44.85
2019-04-25T14:48:21.429Z,43.82
2019-04-25T14:50:47.837Z,43.65
2019-04-25T14:53:14.136Z,44.42
2019-04-25T14:55:40.457Z,43.92
2019-04-25T14:58:06.774Z,43.96
2019-04-25T15:00:33.104Z,44.20
2019-04-25T15:02:59.428Z,43.98
2019-04-25T15:05:25.754Z,45.13
2019-04-25T15:07:52.085Z,45.74
2019-04-25T15:10:18.390Z,46.21
2019-04-25T15:12:44.747Z,44.99
2019-04-25T15:15:11.055Z,44.29
2019-04-25T15:17:45.413Z,44.30
2019-04-25T15:20:03.706Z,44.59
2019-04-25T15:22:30.540Z,44.49
2019-04-25T15:24:56.369Z,44.79
2019-04-25T15:27:22.709Z,45.09
2019-04-25T15:29:49.033Z,46.15
2019-04-25T15:32:15.353Z,46.16
2019-04-25T15:34:41.661Z,48.21
2019-04-25T15:37:08.471Z,49.29
2019-04-25T15:39:35.232Z,50.05
2019-04-25T15:42:00.631Z,51.03
2019-04-25T15:44:26.936Z,51.52
2019-04-25T15:46:53.251Z,52.42
2019-04-25T15:49:19.605Z,53.19
2019-04-25T15:51:45.921Z,52.57
2019-04-25T15:54:12.262Z,53.05
2019-04-25T15:56:38.552Z,53.61
2019-04-25T15:59:04.879Z,53.78
2019-04-25T16:01:47.780Z,53.09
2019-04-25T16:04:03.215Z,50.47
2019-04-25T16:06:29.847Z,50.13
2019-04-25T16:08:56.016Z,50.26
2019-04-25T16:11:22.343Z,50.31
2019-04-25T16:13:48.652Z,51.10
2019-04-25T16:16:15.081Z,51.24
2019-04-25T16:18:41.390Z,52.26
2019-04-25T16:21:07.729Z,52.45
2019-04-25T16:23:34.354Z,52.32
2019-04-25T16:26:00.389Z,52.20
2019-04-25T16:28:27.572Z,52.61
2019-04-25T16:30:53.036Z,52.41
2019-04-25T16:33:19.388Z,52.53
2019-04-25T16:35:45.721Z,51.60
2019-04-25T16:38:17.145Z,51.73
2019-04-25T16:40:42.306Z,51.92
2019-04-25T16:43:26.083Z,52.50
2019-04-25T16:45:38.048Z,52.95
2019-04-25T16:48:11.533Z,53.09
2019-04-25T16:50:31.654Z,53.34
2019-04-25T16:52:57.787Z,53.79
2019-04-25T16:55:24.093Z,54.34
2019-04-25T16:57:50.549Z,54.39
2019-04-25T17:00:16.911Z,54.26
2019-04-25T17:02:43.426Z,54.31
2019-04-25T17:05:09.804Z,54.46
2019-04-25T17:07:38.401Z,54.81
2019-04-25T17:10:02.906Z,54.52
2019-04-25T17:12:29.693Z,54.42
2019-04-25T17:14:55.605Z,54.06
2019-04-25T17:17:22.045Z,53.64
2019-04-25T17:19:48.414Z,53.13
2019-04-25T17:22:14.765Z,53.05
2019-04-25T17:24:41.269Z,52.76
2019-04-25T17:27:07.508Z,54.00
2019-04-25T17:29:34.554Z,54.59
2019-04-25T17:32:00.115Z,54.91
2019-04-25T17:34:26.420Z,55.14
2019-04-25T17:36:52.761Z,55.97
2019-04-25T17:39:19.067Z,56.01
2019-04-25T17:41:45.657Z,55.86
2019-04-25T17:44:12.018Z,55.71
2019-04-25T17:46:38.332Z,55.66
2019-04-25T17:49:04.664Z,55.97
2019-04-25T17:51:30.982Z,55.65
2019-04-25T17:53:57.302Z,55.79
2019-04-25T17:56:23.632Z,55.59
2019-04-25T17:58:49.943Z,55.46
2019-04-25T18:01:16.281Z,54.95
2019-04-25T18:03:42.626Z,56.38
2019-04-25T18:06:08.935Z,58.17
2019-04-25T18:08:35.598Z,58.39
2019-04-25T18:11:01.636Z,59.00
2019-04-25T18:13:28.060Z,60.03
2019-04-25T18:15:54.357Z,61.06
2019-04-25T18:18:20.696Z,62.11
2019-04-25T18:20:47.015Z,63.41
2019-04-25T18:23:13.350Z,64.48
2019-04-25T18:25:39.719Z,65.58
2019-04-25T18:28:06.034Z,66.83
2019-04-25T18:30:32.367Z,67.97
2019-04-25T18:33:09.913Z,69.00
2019-04-25T18:35:25.013Z,70.34
2019-04-25T18:37:51.366Z,71.48
2019-04-25T18:40:17.678Z,72.57
2019-04-25T18:42:44.188Z,73.76
2019-04-25T18:45:10.336Z,74.63
2019-04-25T18:47:36.951Z,75.56
2019-04-25T18:50:03.168Z,76.63
2019-04-25T18:52:29.551Z,77.44
2019-04-25T18:54:55.892Z,78.42
2019-04-25T18:57:22.240Z,79.21
2019-04-25T18:59:48.612Z,80.02
2019-04-25T19:02:14.951Z,80.97
2019-04-25T19:04:41.813Z,81.72
2019-04-25T19:07:07.700Z,82.70
2019-04-25T19:09:34.004Z,83.53
2019-04-25T19:12:00.344Z,84.50
2019-04-25T19:14:27.264Z,85.39
2019-04-25T19:16:52.983Z,86.12
2019-04-25T19:19:19.310Z,86.98
2019-04-25T19:21:45.648Z,87.87
2019-04-25T19:24:11.957Z,88.63
2019-04-25T19:26:40.739Z,89.48
2019-04-25T19:29:04.612Z,90.08
2019-04-25T19:31:30.943Z,90.95
2019-04-25T19:33:57.258Z,91.79
2019-04-25T19:36:23.593Z,92.85
2019-04-25T19:38:49.896Z,93.78
2019-04-25T19:41:16.499Z,94.56
2019-04-25T19:43:42.827Z,93.82
2019-04-25T19:46:09.136Z,94.60
2019-04-25T19:48:35.492Z,95.84
2019-04-25T19:51:01.812Z,96.62
2019-04-25T19:53:28.267Z,97.34
2019-04-25T19:55:54.576Z,98.10
2019-04-25T19:58:20.912Z,99.01
2019-04-25T20:00:47.302Z,99.68
2019-04-25T20:03:13.605Z,100.00
2019-04-25T20:05:39.944Z,100.00
2019-04-25T20:08:06.276Z,100.00
2019-04-25T20:10:32.609Z,100.00
2019-04-25T20:12:58.938Z,100.00
2019-04-25T20:15:25.695Z,100.00
2019-04-25T20:17:52.108Z,100.00
2019-04-25T20:20:18.376Z,100.00
2019-04-25T20:22:44.908Z,100.00
2019-04-25T20:25:11.021Z,100.00
2019-04-25T20:27:38.396Z,100.00
2019-04-25T20:30:03.671Z,100.00
2019-04-25T20:32:29.988Z,100.00
2019-04-25T20:34:56.325Z,100.00
2019-04-25T20:37:22.812Z,100.00
2019-04-25T20:39:49.445Z,100.00
2019-04-25T20:42:15.595Z,100.00
2019-04-25T20:44:41.900Z,100.00
2019-04-25T20:47:08.231Z,100.00
2019-04-25T20:49:34.539Z,100.00
2019-04-25T20:52:00.861Z,100.00
2019-04-25T20:54:27.198Z,100.00
2019-04-25T20:56:53.531Z,100.00
2019-04-25T20:59:19.873Z,100.00
2019-04-25T21:01:47.184Z,100.00
2019-04-25T21:04:13.347Z,100.00
2019-04-25T21:06:38.823Z,100.00
2019-04-25T21:09:05.144Z,100.00
2019-04-25T21:11:31.470Z,100.00
2019-04-25T21:13:57.805Z,100.00
2019-04-25T21:16:24.136Z,100.00
2019-04-25T21:18:50.987Z,100.00
2019-04-25T21:21:16.779Z,100.00
2019-04-25T21:23:43.434Z,100.00
2019-04-25T21:26:09.769Z,100.00
2019-04-25T21:28:36.132Z,100.00
2019-04-25T21:31:03.372Z,100.00
2019-04-25T21:33:28.805Z,100.00
2019-04-25T21:35:55.524Z,100.00
2019-04-25T21:38:21.472Z,100.00
2019-04-25T21:40:47.810Z,100.00
2019-04-25T21:43:14.171Z,100.00
2019-04-25T21:45:40.487Z,100.00
2019-04-25T21:48:06.816Z,100.00
2019-04-25T21:50:33.142Z,100.00
2019-04-25T21:52:59.453Z,100.00
2019-04-25T21:55:25.818Z,100.00
2019-04-25T21:57:52.160Z,100.00
2019-04-25T22:00:18.489Z,100.00
2019-04-25T22:02:44.837Z,100.00
2019-04-25T22:05:11.155Z,100.00
2019-04-25T22:07:37.487Z,100.00
2019-04-25T22:10:03.980Z,100.00
2019-04-25T22:12:30.218Z,100.00
2019-04-25T22:14:57.146Z,100.00
2019-04-25T22:17:22.860Z,100.00
2019-04-25T22:19:49.232Z,100.00
2019-04-25T22:22:15.538Z,100.00
2019-04-25T22:24:41.885Z,100.00
2019-04-25T22:27:08.206Z,100.00
2019-04-25T22:29:34.547Z,100.00
2019-04-25T22:32:03.171Z,100.00
2019-04-25T22:34:29.435Z,100.00
2019-04-25T22:36:55.777Z,100.00
2019-04-25T22:39:22.142Z,100.00
2019-04-25T22:41:49.609Z,100.00
2019-04-25T22:44:14.772Z,100.00
2019-04-25T22:46:41.116Z,100.00
2019-04-25T22:49:07.685Z,100.00
2019-04-25T22:51:33.889Z,100.00
2019-04-25T22:54:00.997Z,100.00
2019-04-25T22:56:26.559Z,100.00
2019-04-25T22:58:52.929Z,100.00
2019-04-25T23:01:19.223Z,100.00
2019-04-25T23:03:45.549Z,100.00
2019-04-25T23:06:11.890Z,100.00
2019-04-25T23:08:38.235Z,100.00
2019-04-25T23:11:04.576Z,100.00
2019-04-25T23:13:30.893Z,100.00
2019-04-25T23:15:57.212Z,100.00
2019-04-25T23:18:23.546Z,100.00
2019-04-25T23:20:49.874Z,100.00
2019-04-25T23:23:16.224Z,100.00
2019-04-25T23:25:42.542Z,100.00
2019-04-25T23:28:09.738Z,100.00
2019-04-25T23:30:35.222Z,100.00
2019-04-25T23:33:01.644Z,100.00
2019-04-25T23:35:33.114Z,100.00
2019-04-25T23:37:54.264Z,100.00
2019-04-25T23:40:20.600Z,100.00
2019-04-25T23:42:46.919Z,100.00
2019-04-25T23:45:13.229Z,100.00
2019-04-25T23:47:39.591Z,100.00
2019-04-25T23:50:07.043Z,100.00
2019-04-25T23:52:32.282Z,100.00
2019-04-25T23:54:58.582Z,100.00
2019-04-25T23:57:24.892Z,100.00
2019-04-25T23:59:51.227Z,100.00
